Terminal Aerodrome Forecast
Issued by NWS

Home | Current Version | Previous Version | Text Only | Print | Product List | Glossary On
Versions: 1 2 3 4 5 6 7 8 9 10 11 12 13 14 15 16 17 18 19 20 21 22 23 24 25 26 27 28 29 30 31 32 33 34 35 36 37 38 39 40 41 42 43 44 45
000
FTUS45 KBOU 161122
TAFBJC
TAF
KBJC 161122Z 1612/1712 03005KT 2SM -SN BR SCT004 OVC009
      TEMPO 1612/1615 3/4SM -SN BR BKN003 OVC006
     FM161500 01008KT 5SM -SN BR SCT006 OVC015
     FM161800 34009KT P6SM VCSH SCT015 OVC025
     FM162100 32009KT P6SM FEW035 SCT070 BKN120
     FM170200 24006KT P6SM FEW050 SCT220
     FM170600 17008KT P6SM FEW220=

USA.gov is the U.S. government's official web portal to all federal, state and local government web resources and services.